ADDS METAR Data INFO
IDs: Format: Raw Decoded Include TAF

Data at: 0545 UTC 11 Dec 2017

KAWM 110453Z AUTO 00000KT 10SM CLR 04/00 A3019 RMK AO2 SLP225 T00390000
KAWM 110353Z AUTO 20006KT 10SM CLR 06/01 A3019 RMK AO2 SLP223 T00610006
KAWM 110253Z AUTO 19007KT 10SM CLR 04/01 A3018 RMK AO2 SLP223 T00440006 53007
KAWM 110153Z AUTO 19007KT 10SM CLR 06/01 A3018 RMK AO2 SLP220 T00610011
KAWM 110053Z AUTO 19008KT 10SM CLR 07/02 A3017 RMK AO2 SLP218 T00670017
KAWM 102353Z AUTO 18008KT 10SM CLR 06/01 A3016 RMK AO2 SLP216 60000 T00610006 10117 20061 56001
KAWM 102253Z AUTO 20008KT 10SM CLR 10/00 A3016 RMK AO2 SLP216 T01000000
KAWM 102153Z AUTO 21007KT 10SM CLR 12/M01 A3016 RMK AO2 SLP215 T01171006
KAWM 102053Z AUTO 21009G16KT 10SM CLR 12/M01 A3017 RMK AO2 RAE28 SLP217 P0000 60000 T01171011 56026
KAWM 101953Z AUTO 20016KT 10SM -RA CLR 11/M01 A3017 RMK AO2 RAB34 SLP217 P0000 T01111006
KAWM 101853Z AUTO 23012G21KT 10SM CLR 11/M02 A3020 RMK AO2 SLP227 T01061022
KAWM 101753Z AUTO 23012G19KT 10SM CLR 09/M03 A3024 RMK AO2 SLP243 60000 T00941028 10094 21056 58020
KAWM 101653Z AUTO 22008G14KT 10SM CLR 07/M03 A3029 RMK AO2 SLP259 T00721028
KAWM 101553Z AUTO 21007KT 10SM CLR 04/M03 A3030 RMK AO2 SLP264 T00441028
KAWM 101453Z AUTO VRB04KT 10SM CLR 02/M03 A3030 RMK AO2 SNB34E41 SLP264 P0000 60000 T00221028 53004
KAWM 101353Z AUTO 20005KT 10SM CLR M02/M03 A3029 RMK AO2 SLP262 T10171033
KAWM 101253Z AUTO 00000KT 10SM CLR M04/M05 A3029 RMK AO2 SLP261 T10441050
KAWM 101153Z AUTO 00000KT 10SM CLR M05/M05 A3029 RMK AO2 SLP260 I1000 I6000 T10501050 11011 21056 51001
KAWM 101053Z AUTO 00000KT 10SM CLR M04/M04 A3029 RMK AO2 SLP260 T10391044
KAWM 100953Z AUTO 00000KT 10SM CLR M04/M04 A3030 RMK AO2 SLP262 T10391039
KAWM 100853Z AUTO 00000KT 10SM CLR M04/M05 A3029 RMK AO2 SLP258 T10391050 53007
KAWM 100753Z AUTO 00000KT 10SM CLR M03/M04 A3028 RMK AO2 SLP255 T10281044
KAWM 100653Z AUTO 00000KT 10SM CLR M02/M03 A3027 RMK AO2 SLP252 T10221033
KAWM 100553Z AUTO 00000KT 10SM CLR M03/M04 A3027 RMK AO2 SLP251 T10281039 10028 21044 400781044 51013
KAWM 100453Z AUTO 00000KT 10SM CLR M03/M03 A3026 RMK AO2 SLP251 T10281033
KAWM 100353Z AUTO 00000KT 10SM CLR M02/M03 A3025 RMK AO2 SLP247 T10221033
KAWM 100253Z AUTO 00000KT 10SM CLR M01/M03 A3023 RMK AO2 SLP239 T10111028 51015
KAWM 100153Z AUTO 00000KT 10SM CLR 00/M03 A3022 RMK AO2 SLP235 T00001028
KAWM 100053Z AUTO 00000KT 10SM CLR 00/M03 A3021 RMK AO2 SLP231 T00001028
KAWM 092353Z AUTO 00000KT 10SM CLR 03/M02 A3018 RMK AO2 SLP224 T00281022 10078 20022 53031
KAWM 092253Z AUTO 35004KT 10SM CLR 05/M02 A3015 RMK AO2 SLP211 T00501022
KAWM 092153Z AUTO 33007KT 10SM CLR 07/M03 A3012 RMK AO2 SLP202 T00671028
KAWM 092053Z AUTO 32008KT 10SM CLR 08/M02 A3009 RMK AO2 SLP191 T00781017 53016
KAWM 091953Z AUTO 34009G17KT 10SM CLR 08/M02 A3006 RMK AO2 SLP182 T00781017
KAWM 091853Z AUTO 34010G20KT 10SM CLR 07/M02 A3004 RMK AO2 SLP175 T00721017
KAWM 091753Z AUTO 31010G16KT 10SM CLR 06/M02 A3004 RMK AO2 SLP176 T00611017 10061 21022 53003